Currently 68°F in Pinon Hills, California, USA
68°F
74°F / 68°F
4 mph W
0.00"
Thursday, September 23, 2021 5:00 AM PDT

Pinon Hills, California Climate Summary
Typical September Day

Normal High:    85.4°F (29.7°C)
Normal Low:    61.3°F (16.3°C)
Average:    72.9°F (22.7°C)

Hour    Temperature    Wind Speed    Humidity
12:00 AM    67°F (19°C)    2 mph    36%
1:00 AM    66°F (19°C)    2 mph    37%
2:00 AM    65°F (18°C)    2 mph    37%
3:00 AM    65°F (18°C)    2 mph    38%
4:00 AM    64°F (18°C)    2 mph    38%
5:00 AM    64°F (18°C)    2 mph    39%
6:00 AM    63°F (17°C)    2 mph    40%
7:00 AM    64°F (18°C)    2 mph    39%
8:00 AM    70°F (21°C)    1 mph    34%
9:00 AM    74°F (23°C)    2 mph    30%
10:00 AM    77°F (25°C)    2 mph    27%
11:00 AM    79°F (26°C)    2 mph    24%
12:00 PM    81°F (27°C)    3 mph    21%
1:00 PM    83°F (28°C)    3 mph    19%
2:00 PM    84°F (29°C)    3 mph    18%
3:00 PM    84°F (29°C)    4 mph    18%
4:00 PM    84°F (29°C)    4 mph    18%
5:00 PM    83°F (28°C)    4 mph    19%
6:00 PM    80°F (27°C)    4 mph    22%
7:00 PM    76°F (24°C)    3 mph    27%
8:00 PM    72°F (22°C)    3 mph    30%
9:00 PM    70°F (21°C)    2 mph    33%
10:00 PM    69°F (20°C)    2 mph    34%
11:00 PM    67°F (20°C)    2 mph    36%
 

The Pinon Hills, California weather pages are a service of WeatherCurrents.
Copyright ©2021  WeatherCurrents. All rights reserved. - Submit questions and comments - Privacy Policy